createdAt,value
2022-10-10T11:52:54.772Z,100978.03
2022-10-10T13:39:03.496Z,101000.15
2022-10-10T13:42:09.492Z,101025.63
2022-10-10T13:45:14.694Z,101002.02
2022-10-10T13:48:43.111Z,101017.91
2022-10-10T18:04:58.585Z,101117.42
2022-10-10T18:08:06.277Z,101110.22
2022-10-10T18:11:14.035Z,101106.77
2022-10-10T18:14:20.649Z,101110.47
2022-10-10T18:17:26.339Z,101108.53
2022-10-10T18:20:32.420Z,101098.94
2022-10-10T18:23:38.251Z,101102.66
2022-10-10T18:26:45.953Z,101091.69
2022-10-10T18:29:52.876Z,101094.42
2022-10-10T18:32:58.589Z,101109.13
2022-10-10T18:36:05.263Z,101094.92
2022-10-10T18:39:16.582Z,101092.72
2022-10-10T18:42:24.402Z,101093.93
2022-10-10T18:45:30.258Z,101102.13
2022-10-10T18:48:37.289Z,101097.34
2022-10-10T18:51:43.983Z,101092.59
2022-10-10T18:54:50.706Z,101096.91
2022-10-10T19:11:03.794Z,101083.50
2022-10-10T19:14:18.070Z,101087.90
2022-10-10T19:17:25.829Z,101083.89
2022-10-10T19:20:31.890Z,101080.23
2022-10-10T19:23:38.779Z,101079.97
2022-10-10T19:26:44.214Z,101077.48
2022-10-10T19:29:50.524Z,101063.07
2022-10-10T19:32:57.975Z,101069.84
2022-10-10T19:36:04.215Z,101069.32
2022-10-10T19:39:13.795Z,101070.47
2022-10-10T19:42:20.089Z,101079.20
2022-10-10T19:45:26.380Z,101077.62
2022-10-10T19:48:37.593Z,101072.15
2022-10-10T19:51:44.575Z,101069.08
2022-10-10T19:54:49.636Z,101062.89
2022-10-10T19:57:57.837Z,101067.30
2022-10-10T20:01:05.512Z,101054.66
2022-10-10T20:04:11.395Z,101054.81
2022-10-10T20:07:17.652Z,101063.02
2022-10-10T20:10:23.847Z,101059.03
2022-10-10T20:13:29.724Z,101052.02
2022-10-10T20:16:36.162Z,101055.25
2022-10-10T20:19:43.415Z,101057.64
2022-10-10T20:22:51.938Z,101041.39
2022-10-10T20:25:59.131Z,101046.30
2022-10-10T20:29:05.555Z,101046.95
2022-10-10T20:32:10.929Z,101048.78
2022-10-10T20:35:17.502Z,101044.49
2022-10-10T20:38:24.816Z,101042.41
2022-10-10T20:41:31.190Z,101042.91
2022-10-10T20:44:31.259Z,101041.05
2022-10-10T20:47:37.037Z,101028.41
2022-10-10T20:50:42.312Z,101037.28
2022-10-10T20:53:53.426Z,101030.45
2022-10-10T20:56:59.185Z,101028.97
2022-10-10T21:00:06.434Z,101027.07
2022-10-10T21:03:14.129Z,101029.96
2022-10-10T21:06:23.920Z,101013.56
2022-10-10T21:09:32.851Z,101032.35
2022-10-10T21:12:39.932Z,101024.16
2022-10-10T21:15:47.053Z,101025.83
2022-10-10T21:18:57.387Z,101009.89
2022-10-10T21:22:01.539Z,101023.49
2022-10-10T21:25:07.181Z,101024.83
2022-10-10T21:28:13.414Z,101017.28
2022-10-10T21:31:18.943Z,101016.56
2022-10-10T21:34:27.305Z,101022.33
2022-10-10T21:37:35.524Z,101019.26
2022-10-10T21:40:42.048Z,101014.94
2022-10-10T21:43:51.844Z,101014.10
2022-10-10T21:46:58.186Z,101016.12
2022-10-10T21:50:03.803Z,101023.29
2022-10-10T21:53:10.234Z,101019.56
2022-10-10T21:56:18.754Z,101014.78
2022-10-10T21:59:25.224Z,101010.20
2022-10-10T22:02:31.549Z,101013.64
2022-10-10T22:05:39.414Z,101013.98
2022-10-10T22:08:44.210Z,101018.58
2022-10-10T22:11:51.821Z,101020.81
2022-10-10T22:15:00.008Z,101013.98
2022-10-10T22:18:06.021Z,101018.73
2022-10-10T22:21:11.333Z,101014.44
2022-10-10T22:24:17.217Z,101027.38
2022-10-10T22:27:23.646Z,101023.09
2022-10-10T22:30:30.509Z,101024.77
2022-10-10T22:33:37.820Z,101031.03
2022-10-10T22:36:45.607Z,101037.52
2022-10-10T22:39:46.030Z,101034.64
2022-10-10T22:42:53.417Z,101030.88
2022-10-10T22:45:59.876Z,101035.17
2022-10-10T22:49:06.153Z,101035.89
2022-10-10T22:52:11.966Z,101034.74
2022-10-10T22:55:18.874Z,101026.39
2022-10-10T22:58:25.437Z,101025.38
2022-10-10T23:01:33.318Z,101034.44
2022-10-10T23:04:38.851Z,101038.38
2022-10-10T23:07:44.869Z,101030.53
2022-10-10T23:10:55.252Z,101028.29
2022-10-10T23:14:01.939Z,101037.36
2022-10-10T23:17:07.935Z,101032.23
2022-10-10T23:20:15.043Z,101045.21
2022-10-10T23:23:23.198Z,101031.02
2022-10-10T23:26:28.412Z,101032.70
2022-10-10T23:29:34.367Z,101029.13
2022-10-10T23:32:40.497Z,101034.74
2022-10-10T23:35:46.110Z,101021.20
2022-10-10T23:38:51.479Z,101036.23
2022-10-10T23:41:57.832Z,101024.09
2022-10-10T23:45:04.117Z,101030.91
2022-10-10T23:48:10.296Z,101021.36
2022-10-10T23:51:16.474Z,101026.82
2022-10-10T23:54:24.190Z,101029.77
2022-10-10T23:57:29.010Z,101029.77
